createdAt,value
2018-04-15T00:01:31.075Z,17.40
2018-04-15T00:04:02.520Z,17.40
2018-04-15T00:06:33.913Z,17.40
2018-04-15T00:09:04.324Z,17.40
2018-04-15T00:11:35.693Z,17.30
2018-04-15T00:14:07.396Z,17.30
2018-04-15T00:16:38.978Z,17.30
2018-04-15T00:19:10.419Z,17.30
2018-04-15T00:21:41.761Z,17.30
2018-04-15T00:26:49.838Z,17.20
2018-04-15T00:29:21.232Z,17.20
2018-04-15T00:31:52.583Z,17.20
2018-04-15T00:34:24.048Z,17.10
2018-04-15T00:36:55.438Z,17.10
2018-04-15T00:39:26.891Z,17.10
2018-04-15T00:41:59.739Z,17.10
2018-04-15T00:44:31.145Z,17.10
2018-04-15T00:47:03.334Z,17.00
2018-04-15T00:49:34.892Z,17.00
2018-04-15T00:52:06.254Z,17.10
2018-04-15T00:54:37.620Z,17.10
2018-04-15T00:57:09.089Z,17.00
2018-04-15T00:59:40.582Z,17.00
2018-04-15T01:02:12.777Z,17.00
2018-04-15T01:04:44.130Z,17.00
2018-04-15T01:07:15.482Z,17.00
2018-04-15T01:09:47.605Z,17.00
2018-04-15T01:12:19.816Z,17.00
2018-04-15T01:14:51.165Z,17.00
2018-04-15T01:17:22.551Z,17.00
2018-04-15T01:19:53.971Z,17.00
2018-04-15T01:22:25.453Z,16.90
2018-04-15T01:24:56.969Z,16.90
2018-04-15T01:27:29.205Z,16.80
2018-04-15T01:30:01.313Z,16.80
2018-04-15T01:32:32.343Z,16.80
2018-04-15T01:35:03.438Z,16.80
2018-04-15T01:37:34.838Z,16.70
2018-04-15T01:40:05.969Z,16.70
2018-04-15T01:42:37.373Z,16.60
2018-04-15T01:45:08.757Z,16.60
2018-04-15T01:47:41.123Z,16.60
2018-04-15T01:50:13.372Z,16.60
2018-04-15T01:52:46.347Z,16.50
2018-04-15T01:55:17.708Z,16.50
2018-04-15T01:57:49.051Z,16.50
2018-04-15T02:00:20.750Z,16.50
2018-04-15T02:02:54.107Z,16.50
2018-04-15T02:05:25.502Z,16.50
2018-04-15T02:07:57.721Z,16.40
2018-04-15T02:10:29.998Z,16.40
2018-04-15T02:13:01.134Z,16.40
2018-04-15T02:15:32.632Z,16.40
2018-04-15T02:18:04.275Z,16.40
2018-04-15T02:20:35.926Z,16.40
2018-04-15T02:23:07.273Z,16.40
2018-04-15T02:25:41.140Z,16.40
2018-04-15T02:28:12.762Z,16.30
2018-04-15T02:30:44.916Z,16.30
2018-04-15T02:33:16.593Z,16.30
2018-04-15T02:35:48.097Z,16.30
2018-04-15T02:38:19.808Z,16.30
2018-04-15T02:40:51.174Z,16.30
2018-04-15T02:43:22.420Z,16.30
2018-04-15T02:45:53.796Z,16.30
2018-04-15T02:48:25.162Z,16.20
2018-04-15T02:50:56.650Z,16.20
2018-04-15T02:53:28.081Z,16.20
2018-04-15T02:55:59.454Z,16.20
2018-04-15T02:58:31.313Z,16.20
2018-04-15T03:01:02.529Z,16.20
2018-04-15T03:03:33.929Z,16.20
2018-04-15T03:06:06.022Z,16.10
2018-04-15T03:08:37.381Z,16.10
2018-04-15T03:11:08.734Z,16.20
2018-04-15T03:13:40.323Z,16.10
2018-04-15T03:16:11.639Z,16.10
2018-04-15T03:18:43.061Z,16.10
2018-04-15T03:21:14.549Z,16.10
2018-04-15T03:23:46.009Z,16.10
2018-04-15T03:26:17.382Z,16.10
2018-04-15T03:28:49.499Z,16.00
2018-04-15T03:31:20.862Z,16.00
2018-04-15T03:33:52.265Z,16.00
2018-04-15T03:36:24.538Z,16.00
2018-04-15T03:38:56.046Z,15.90
2018-04-15T03:41:27.574Z,15.90
2018-04-15T03:43:59.000Z,16.00
2018-04-15T03:46:30.538Z,16.00
2018-04-15T03:49:02.725Z,15.90
2018-04-15T03:51:34.815Z,15.90
2018-04-15T03:54:06.325Z,15.90
2018-04-15T03:56:38.529Z,15.90
2018-04-15T03:59:09.956Z,15.80
2018-04-15T04:01:42.262Z,15.80
2018-04-15T04:04:13.626Z,15.80
2018-04-15T04:06:45.147Z,15.80
2018-04-15T04:09:17.380Z,15.80
2018-04-15T04:11:49.770Z,15.90
2018-04-15T04:14:21.205Z,15.80
2018-04-15T04:16:52.578Z,15.80
2018-04-15T04:19:41.594Z,15.90
2018-04-15T04:25:42.138Z,15.90
2018-04-15T04:28:13.475Z,15.80
2018-04-15T04:30:44.824Z,15.80
2018-04-15T04:33:16.149Z,15.80
2018-04-15T04:35:48.257Z,15.70
2018-04-15T04:38:19.595Z,15.70
2018-04-15T04:40:50.975Z,15.70
2018-04-15T04:43:22.329Z,15.70
2018-04-15T04:45:53.686Z,15.70
2018-04-15T04:48:26.647Z,15.70
2018-04-15T04:50:57.979Z,15.70
2018-04-15T04:53:29.342Z,15.70
2018-04-15T04:56:00.669Z,15.70
2018-04-15T04:58:32.054Z,15.70
2018-04-15T05:01:03.389Z,15.60
2018-04-15T05:03:35.713Z,15.60
2018-04-15T05:06:07.365Z,15.60
2018-04-15T05:08:39.977Z,15.60
2018-04-15T05:11:12.401Z,15.60
2018-04-15T05:13:43.727Z,15.50
2018-04-15T05:16:15.086Z,15.50
2018-04-15T05:18:46.417Z,15.50
2018-04-15T05:21:17.800Z,15.50
2018-04-15T05:23:49.201Z,15.50
2018-04-15T05:26:20.562Z,15.50
2018-04-15T05:28:51.929Z,15.50
2018-04-15T05:31:23.486Z,15.50
2018-04-15T05:33:54.833Z,15.50
2018-04-15T05:36:25.945Z,15.40
2018-04-15T05:38:57.556Z,15.40
2018-04-15T05:41:29.038Z,15.40
2018-04-15T05:44:01.462Z,15.40
2018-04-15T05:46:33.577Z,15.40
2018-04-15T05:49:06.463Z,15.40
2018-04-15T05:51:38.628Z,15.40
2018-04-15T05:54:10.288Z,15.40
2018-04-15T05:56:42.170Z,15.50
2018-04-15T05:59:14.786Z,15.50
2018-04-15T06:01:46.114Z,15.50
2018-04-15T06:04:17.891Z,15.50
2018-04-15T06:06:49.245Z,15.50
2018-04-15T06:09:20.781Z,15.50
2018-04-15T06:11:52.317Z,15.50
2018-04-15T06:14:24.433Z,15.60
2018-04-15T06:16:55.896Z,15.60
2018-04-15T06:19:28.898Z,15.60
2018-04-15T06:22:01.016Z,15.70
2018-04-15T06:24:32.446Z,15.60
2018-04-15T06:27:04.041Z,15.70
2018-04-15T06:29:35.638Z,15.70
2018-04-15T06:32:07.865Z,15.70
2018-04-15T06:34:40.370Z,15.80
2018-04-15T06:37:12.072Z,15.80
2018-04-15T06:39:43.436Z,15.80
2018-04-15T06:42:14.777Z,15.80
2018-04-15T06:44:45.931Z,15.80
2018-04-15T06:47:17.299Z,15.80
2018-04-15T06:49:48.683Z,15.90
2018-04-15T06:52:20.197Z,15.90
2018-04-15T06:54:52.431Z,16.00
2018-04-15T06:57:23.813Z,15.90
2018-04-15T06:59:55.063Z,16.00
2018-04-15T07:02:26.417Z,16.00
2018-04-15T07:04:57.773Z,16.10
2018-04-15T07:07:29.113Z,16.00
2018-04-15T07:10:00.450Z,16.10
2018-04-15T07:12:31.806Z,16.40
2018-04-15T07:15:02.907Z,16.10
2018-04-15T07:17:35.134Z,16.10
2018-04-15T07:20:06.174Z,16.10
2018-04-15T07:22:37.515Z,16.20
2018-04-15T07:25:08.868Z,16.20
2018-04-15T07:27:40.249Z,16.20
2018-04-15T07:30:12.398Z,16.30
2018-04-15T07:32:43.563Z,16.30
2018-04-15T07:35:15.739Z,16.40
2018-04-15T07:37:47.086Z,16.40
2018-04-15T07:40:18.492Z,16.40
2018-04-15T07:42:50.243Z,16.50
2018-04-15T07:45:21.631Z,16.90
2018-04-15T07:47:53.725Z,16.50
2018-04-15T07:50:25.872Z,16.50
2018-04-15T07:52:57.221Z,16.50
2018-04-15T07:55:29.446Z,16.60
2018-04-15T07:58:01.674Z,16.60
2018-04-15T08:00:33.806Z,16.60
2018-04-15T08:03:05.632Z,16.60
2018-04-15T08:05:37.083Z,16.70
2018-04-15T08:08:08.498Z,16.70
2018-04-15T08:10:39.886Z,16.90
2018-04-15T08:13:11.281Z,17.00
2018-04-15T08:15:42.650Z,17.10
2018-04-15T08:18:15.003Z,17.20
2018-04-15T08:20:46.381Z,17.20
2018-04-15T08:23:18.213Z,17.40
2018-04-15T08:25:49.623Z,17.40
2018-04-15T08:28:21.069Z,17.50
2018-04-15T08:30:52.749Z,17.50
2018-04-15T08:33:24.083Z,17.60
2018-04-15T08:35:55.783Z,17.70
2018-04-15T08:38:27.162Z,17.80
2018-04-15T08:40:59.254Z,17.80
2018-04-15T08:43:30.785Z,17.80
2018-04-15T08:46:02.196Z,17.90
2018-04-15T08:48:33.670Z,17.90
2018-04-15T08:51:05.900Z,18.00
2018-04-15T08:53:37.606Z,17.90
2018-04-15T08:56:09.734Z,18.10
2018-04-15T08:58:41.120Z,18.10
2018-04-15T09:01:12.560Z,18.20
2018-04-15T09:03:44.236Z,18.20
2018-04-15T09:06:16.075Z,18.30
2018-04-15T09:08:47.409Z,18.40
2018-04-15T09:11:18.853Z,18.40
2018-04-15T09:13:50.210Z,18.50
2018-04-15T09:16:21.550Z,18.60
2018-04-15T09:18:52.970Z,18.70
2018-04-15T09:21:24.381Z,18.80
2018-04-15T09:23:55.780Z,18.80
2018-04-15T09:26:27.310Z,18.90
2018-04-15T09:28:58.793Z,19.00
2018-04-15T09:31:30.254Z,19.00
2018-04-15T09:34:01.656Z,19.10
2018-04-15T09:36:33.086Z,19.10
2018-04-15T09:39:03.803Z,19.20
2018-04-15T09:41:35.198Z,19.30
2018-04-15T09:44:07.135Z,19.40
2018-04-15T09:46:38.484Z,19.40
2018-04-15T09:49:09.945Z,19.50
2018-04-15T09:51:41.514Z,19.70
2018-04-15T09:54:13.082Z,20.20
2018-04-15T09:56:45.170Z,20.30
2018-04-15T09:59:16.601Z,20.30
2018-04-15T10:01:48.184Z,20.60
2018-04-15T10:04:19.580Z,20.90
2018-04-15T10:06:50.902Z,21.20
2018-04-15T10:09:22.268Z,21.60
2018-04-15T10:11:53.679Z,21.90
2018-04-15T10:14:25.108Z,22.30
2018-04-15T10:16:57.276Z,23.00
2018-04-15T10:19:29.197Z,23.00
2018-04-15T10:22:00.629Z,23.40
2018-04-15T10:24:32.073Z,23.70
2018-04-15T10:27:03.455Z,24.10
2018-04-15T10:29:34.625Z,24.40
2018-04-15T10:32:07.755Z,25.20
2018-04-15T10:34:39.105Z,25.20
2018-04-15T10:37:10.493Z,25.60
2018-04-15T10:39:41.842Z,26.10
2018-04-15T10:42:13.215Z,26.50
2018-04-15T10:44:44.585Z,26.80
2018-04-15T10:47:16.468Z,27.20
2018-04-15T10:49:47.823Z,27.50
2018-04-15T10:52:19.241Z,27.80
2018-04-15T10:54:51.333Z,28.10
2018-04-15T10:57:22.720Z,28.00
2018-04-15T10:59:54.090Z,28.00
2018-04-15T11:02:27.219Z,28.10
2018-04-15T11:04:58.616Z,28.10
2018-04-15T11:07:30.267Z,28.10
2018-04-15T11:10:01.656Z,28.10
2018-04-15T11:12:33.795Z,28.00
2018-04-15T11:15:05.124Z,28.00
2018-04-15T11:17:36.953Z,27.80
2018-04-15T11:20:08.818Z,27.70
2018-04-15T11:22:40.980Z,27.90
2018-04-15T11:25:13.394Z,28.00
2018-04-15T11:27:44.782Z,28.00
2018-04-15T11:30:16.934Z,28.10
2018-04-15T11:32:48.286Z,28.00
2018-04-15T11:35:19.952Z,28.30
2018-04-15T11:37:51.299Z,28.80
2018-04-15T11:40:22.668Z,29.30
2018-04-15T11:42:54.430Z,29.80
2018-04-15T11:45:25.959Z,30.20
2018-04-15T11:47:58.201Z,30.30
2018-04-15T11:50:29.579Z,30.30
2018-04-15T11:53:01.170Z,30.10
2018-04-15T11:55:33.327Z,29.60
2018-04-15T11:58:05.519Z,29.50
2018-04-15T12:00:36.982Z,29.50
2018-04-15T12:03:08.343Z,29.30
2018-04-15T12:05:39.810Z,29.00
2018-04-15T12:08:11.151Z,28.70
2018-04-15T12:10:42.563Z,28.50
2018-04-15T12:13:14.970Z,28.20
2018-04-15T12:15:48.751Z,28.10
2018-04-15T12:18:20.212Z,27.90
2018-04-15T12:20:51.687Z,27.80
2018-04-15T12:23:23.354Z,27.90
2018-04-15T12:25:54.699Z,28.00
2018-04-15T12:28:26.099Z,28.10
2018-04-15T12:30:58.231Z,27.80
2018-04-15T12:33:29.631Z,27.80
2018-04-15T12:36:01.763Z,27.30
2018-04-15T12:38:33.270Z,27.30
2018-04-15T12:41:04.764Z,27.00
2018-04-15T12:43:36.303Z,26.70
2018-04-15T12:46:07.809Z,26.40
2018-04-15T12:48:39.533Z,26.10
2018-04-15T12:51:11.153Z,25.80
2018-04-15T12:53:42.560Z,25.70
2018-04-15T12:56:13.928Z,25.60
2018-04-15T12:58:45.297Z,25.60
2018-04-15T13:01:16.691Z,25.80
2018-04-15T13:03:48.417Z,26.20
2018-04-15T13:06:20.095Z,26.60
2018-04-15T13:08:51.480Z,26.90
2018-04-15T13:11:23.695Z,27.40
2018-04-15T13:13:56.078Z,27.40
2018-04-15T13:16:27.478Z,27.40
2018-04-15T13:18:59.021Z,27.30
2018-04-15T13:21:30.211Z,27.20
2018-04-15T13:24:01.759Z,27.00
2018-04-15T13:26:33.116Z,26.70
2018-04-15T13:29:04.670Z,26.50
2018-04-15T13:31:36.619Z,26.30
2018-04-15T13:34:07.972Z,26.10
2018-04-15T13:36:39.631Z,26.00
2018-04-15T13:39:10.994Z,25.80
2018-04-15T13:41:42.349Z,25.70
2018-04-15T13:44:13.819Z,25.50
2018-04-15T13:46:45.203Z,25.40
2018-04-15T13:49:17.147Z,25.30
2018-04-15T13:51:50.324Z,25.20
2018-04-15T13:54:21.771Z,25.20
2018-04-15T13:56:54.097Z,25.00
2018-04-15T13:59:26.250Z,25.00
2018-04-15T14:01:57.598Z,24.90
2018-04-15T14:04:29.761Z,24.70
2018-04-15T14:07:01.874Z,24.60
2018-04-15T14:09:33.316Z,24.50
2018-04-15T14:12:05.468Z,24.30
2018-04-15T14:14:37.633Z,24.10
2018-04-15T14:17:09.151Z,24.10
2018-04-15T14:19:40.613Z,23.90
2018-04-15T14:22:12.048Z,23.80
2018-04-15T14:24:43.626Z,23.60
2018-04-15T14:27:15.814Z,23.50
2018-04-15T14:29:47.313Z,23.50
2018-04-15T14:32:18.815Z,23.40
2018-04-15T14:34:50.186Z,23.40
2018-04-15T14:37:21.735Z,23.40
2018-04-15T14:39:53.906Z,23.30
2018-04-15T14:42:26.341Z,23.30
2018-04-15T14:47:34.533Z,23.30
2018-04-15T14:50:05.896Z,23.20
2018-04-15T14:52:37.625Z,23.20
2018-04-15T14:55:09.021Z,23.20
2018-04-15T14:57:42.022Z,23.20
2018-04-15T15:00:13.365Z,23.20
2018-04-15T15:05:20.900Z,23.30
2018-04-15T15:07:52.583Z,23.40
2018-04-15T15:10:24.798Z,23.50
2018-04-15T15:12:57.774Z,23.60
2018-04-15T15:15:29.307Z,23.50
2018-04-15T15:18:02.164Z,23.70
2018-04-15T15:20:33.619Z,23.70
2018-04-15T15:23:05.727Z,23.80
2018-04-15T15:25:37.150Z,23.80
2018-04-15T15:28:08.100Z,23.90
2018-04-15T15:30:39.549Z,23.90
2018-04-15T15:33:11.797Z,24.00
2018-04-15T15:35:43.972Z,24.00
2018-04-15T15:38:16.094Z,24.00
2018-04-15T15:40:47.706Z,23.90
2018-04-15T15:43:19.863Z,24.00
2018-04-15T15:45:51.229Z,23.90
2018-04-15T15:48:22.989Z,24.00
2018-04-15T15:50:54.353Z,24.00
2018-04-15T15:53:25.518Z,23.90
2018-04-15T15:55:56.890Z,23.90
2018-04-15T15:58:28.298Z,23.80
2018-04-15T16:00:59.778Z,23.60
2018-04-15T16:03:31.287Z,23.70
2018-04-15T16:06:02.666Z,23.70
2018-04-15T16:08:34.205Z,23.60
2018-04-15T16:11:05.571Z,23.50
2018-04-15T16:13:37.097Z,23.50
2018-04-15T16:16:09.272Z,23.30
2018-04-15T16:18:41.347Z,23.20
2018-04-15T16:21:12.716Z,23.20
2018-04-15T16:23:44.077Z,23.20
2018-04-15T16:26:15.465Z,23.10
2018-04-15T16:28:47.544Z,23.00
2018-04-15T16:31:19.361Z,22.90
2018-04-15T16:33:50.710Z,22.90
2018-04-15T16:36:22.119Z,22.80
2018-04-15T16:38:53.454Z,22.80
2018-04-15T16:41:25.588Z,22.70
2018-04-15T16:43:56.945Z,22.60
2018-04-15T16:46:28.329Z,22.60
2018-04-15T16:49:00.567Z,22.50
2018-04-15T16:51:31.948Z,22.50
2018-04-15T16:54:04.136Z,22.40
2018-04-15T16:56:36.592Z,22.40
2018-04-15T16:59:08.733Z,22.30
2018-04-15T17:01:40.114Z,22.30
2018-04-15T17:04:12.285Z,22.30
2018-04-15T17:06:43.646Z,22.20
2018-04-15T17:09:15.116Z,22.30
2018-04-15T17:11:46.452Z,22.20
2018-04-15T17:14:17.821Z,22.20
2018-04-15T17:16:49.194Z,22.20
2018-04-15T17:19:20.565Z,22.10
2018-04-15T17:21:53.634Z,22.10
2018-04-15T17:24:25.771Z,22.00
2018-04-15T17:26:57.198Z,22.00
2018-04-15T17:29:28.745Z,22.00
2018-04-15T17:32:00.921Z,21.90
2018-04-15T17:34:33.030Z,21.90
2018-04-15T17:37:04.520Z,21.90
2018-04-15T17:39:35.975Z,21.90
2018-04-15T17:42:07.304Z,21.90
2018-04-15T17:44:38.722Z,21.90
2018-04-15T17:47:10.332Z,21.90
2018-04-15T17:49:42.514Z,21.80
2018-04-15T17:52:14.671Z,21.70
2018-04-15T17:54:46.133Z,21.70
2018-04-15T17:57:17.501Z,21.70
2018-04-15T17:59:49.031Z,21.70
2018-04-15T18:02:20.375Z,21.70
2018-04-15T18:04:52.660Z,21.50
2018-04-15T18:07:23.966Z,21.50
2018-04-15T18:09:55.318Z,21.50
2018-04-15T18:12:28.237Z,21.40
2018-04-15T18:14:59.571Z,21.40
2018-04-15T18:17:30.960Z,21.40
2018-04-15T18:20:02.315Z,21.00
2018-04-15T18:22:33.704Z,21.30
2018-04-15T18:25:05.872Z,21.30
2018-04-15T18:27:37.255Z,21.30
2018-04-15T18:30:09.458Z,21.20
2018-04-15T18:32:41.629Z,21.20
2018-04-15T18:35:13.014Z,21.10
2018-04-15T18:37:44.515Z,21.10
2018-04-15T18:40:15.884Z,21.00
2018-04-15T18:42:47.307Z,21.00
2018-04-15T18:45:19.442Z,20.80
2018-04-15T18:47:50.705Z,20.80
2018-04-15T18:50:22.717Z,20.70
2018-04-15T18:52:54.213Z,20.70
2018-04-15T18:55:26.354Z,20.60
2018-04-15T18:57:57.714Z,20.60
2018-04-15T19:00:29.151Z,20.50
2018-04-15T19:03:00.516Z,20.50
2018-04-15T19:05:31.904Z,20.40
2018-04-15T19:08:04.047Z,20.30
2018-04-15T19:10:35.462Z,20.30
2018-04-15T19:13:06.859Z,20.30
2018-04-15T19:15:39.177Z,20.20
2018-04-15T19:18:11.309Z,20.10
2018-04-15T19:20:43.705Z,20.10
2018-04-15T19:23:15.161Z,20.10
2018-04-15T19:25:46.538Z,20.10
2018-04-15T19:28:17.952Z,20.10
2018-04-15T19:30:49.458Z,20.00
2018-04-15T19:33:20.901Z,20.00
2018-04-15T19:35:52.256Z,19.90
2018-04-15T19:38:23.661Z,19.90
2018-04-15T19:40:55.794Z,19.80
2018-04-15T19:43:28.483Z,19.70
2018-04-15T19:45:59.902Z,19.70
2018-04-15T19:48:30.993Z,19.70
2018-04-15T19:51:02.939Z,19.60
2018-04-15T19:53:34.333Z,19.60
2018-04-15T19:56:05.865Z,19.50
2018-04-15T19:58:38.195Z,19.40
2018-04-15T20:01:09.588Z,19.40
2018-04-15T20:03:41.743Z,19.40
2018-04-15T20:06:13.101Z,19.30
2018-04-15T20:08:45.234Z,19.20
2018-04-15T20:11:16.644Z,19.30
2018-04-15T20:13:49.015Z,19.20
2018-04-15T20:16:20.325Z,19.20
2018-04-15T20:18:52.985Z,19.10
2018-04-15T20:21:24.210Z,19.10
2018-04-15T20:23:55.332Z,19.10
2018-04-15T20:26:27.472Z,19.10
2018-04-15T20:28:58.824Z,19.00
2018-04-15T20:31:30.214Z,19.10
2018-04-15T20:34:01.619Z,19.10
2018-04-15T20:36:33.138Z,19.00
2018-04-15T20:39:03.909Z,19.00
2018-04-15T20:41:35.054Z,18.90
2018-04-15T20:44:07.191Z,18.90
2018-04-15T20:46:38.597Z,18.90
2018-04-15T20:49:09.618Z,18.80
2018-04-15T20:51:41.842Z,18.80
2018-04-15T20:54:13.191Z,18.70
2018-04-15T20:56:44.553Z,18.70
2018-04-15T20:59:15.546Z,18.70
2018-04-15T21:01:46.923Z,18.60
2018-04-15T21:04:18.266Z,18.60
2018-04-15T21:06:49.399Z,18.60
2018-04-15T21:09:20.531Z,18.50
2018-04-15T21:11:52.722Z,18.40
2018-04-15T21:14:24.245Z,18.40
2018-04-15T21:16:56.571Z,18.30
2018-04-15T21:19:27.907Z,18.30
2018-04-15T21:21:59.274Z,18.30
2018-04-15T21:24:30.632Z,18.20
2018-04-15T21:27:02.133Z,18.20
2018-04-15T21:29:34.256Z,18.20
2018-04-15T21:32:05.610Z,18.10
2018-04-15T21:34:36.978Z,18.20
2018-04-15T21:37:09.842Z,18.10
2018-04-15T21:39:41.492Z,18.10
2018-04-15T21:42:12.620Z,18.00
2018-04-15T21:44:43.963Z,18.00
2018-04-15T21:47:15.354Z,18.00
2018-04-15T21:49:46.758Z,18.00
2018-04-15T21:52:18.263Z,17.90
2018-04-15T21:54:50.375Z,17.90
2018-04-15T21:57:21.730Z,17.80
2018-04-15T21:59:53.149Z,17.80
2018-04-15T22:02:24.498Z,17.80
2018-04-15T22:04:55.747Z,17.80
2018-04-15T22:07:28.554Z,17.70
2018-04-15T22:10:01.083Z,17.70
2018-04-15T22:12:32.705Z,17.60
2018-04-15T22:15:04.099Z,17.70
2018-04-15T22:17:35.464Z,17.60
2018-04-15T22:20:06.834Z,17.60
2018-04-15T22:22:38.181Z,17.50
2018-04-15T22:25:10.308Z,17.50
2018-04-15T22:27:42.202Z,17.40
2018-04-15T22:30:13.665Z,17.40
2018-04-15T22:32:45.809Z,17.30
2018-04-15T22:35:17.308Z,17.30
2018-04-15T22:37:48.799Z,17.30
2018-04-15T22:40:19.859Z,17.30
2018-04-15T22:42:51.988Z,17.20
2018-04-15T22:45:23.309Z,17.20
2018-04-15T22:47:59.983Z,17.20
2018-04-15T22:50:36.714Z,17.10
2018-04-15T22:53:07.841Z,17.10
2018-04-15T22:55:39.218Z,17.10
2018-04-15T22:58:10.617Z,17.00
2018-04-15T23:00:41.937Z,17.00
2018-04-15T23:03:13.322Z,17.00
2018-04-15T23:05:44.739Z,16.90
2018-04-15T23:08:16.086Z,16.90
2018-04-15T23:10:47.476Z,16.90
2018-04-15T23:13:18.853Z,16.80
2018-04-15T23:15:50.927Z,16.80
2018-04-15T23:18:23.467Z,16.70
2018-04-15T23:20:54.611Z,16.70
2018-04-15T23:23:26.008Z,16.70
2018-04-15T23:25:58.128Z,16.70
2018-04-15T23:28:29.514Z,16.70
2018-04-15T23:31:01.624Z,16.70
2018-04-15T23:33:33.069Z,16.60
2018-04-15T23:36:04.408Z,16.60
2018-04-15T23:38:36.519Z,16.50
2018-04-15T23:41:07.883Z,16.50
2018-04-15T23:43:38.987Z,16.50
2018-04-15T23:46:10.381Z,16.40
2018-04-15T23:48:41.731Z,16.40
2018-04-15T23:51:13.059Z,16.40
2018-04-15T23:53:44.425Z,16.30
2018-04-15T23:56:16.006Z,16.30
2018-04-15T23:58:48.167Z,16.20
